createdAt,value
2023-03-02T00:01:15.925Z,93228.34
2023-03-02T00:02:47.526Z,93228.34
2023-03-02T00:04:26.482Z,93227.81
2023-03-02T00:05:58.326Z,93226.47
2023-03-02T00:07:32.236Z,93221.16
2023-03-02T00:09:04.909Z,93222.22
2023-03-02T00:10:36.681Z,93218.47
2023-03-02T00:12:08.289Z,93215.28
2023-03-02T00:13:39.908Z,93215.53
2023-03-02T00:15:11.969Z,93211.28
2023-03-02T00:16:43.521Z,93214.22
2023-03-02T00:18:14.958Z,93208.63
2023-03-02T00:19:47.505Z,93205.69
2023-03-02T00:21:19.023Z,93205.13
2023-03-02T00:22:50.578Z,93206.72
2023-03-02T00:24:22.114Z,93200.06
2023-03-02T00:25:53.658Z,93205.66
2023-03-02T00:27:27.628Z,93202.41
2023-03-02T00:28:59.108Z,93204.00
2023-03-02T00:30:30.535Z,93204.00
2023-03-02T00:32:04.075Z,93203.75
2023-03-02T00:33:35.656Z,93207.22
2023-03-02T00:35:07.427Z,93191.47
2023-03-02T00:36:38.952Z,93189.06
2023-03-02T00:38:10.590Z,93182.66
2023-03-02T00:39:43.397Z,93192.56
2023-03-02T00:41:15.623Z,93186.72
2023-03-02T00:42:47.101Z,93181.41
2023-03-02T00:44:18.771Z,93181.16
2023-03-02T00:45:50.255Z,93180.91
2023-03-02T00:47:21.748Z,93182.25
2023-03-02T00:48:53.335Z,93178.25
2023-03-02T00:50:24.951Z,93177.19
2023-03-02T00:51:56.489Z,93174.78
2023-03-02T00:53:28.010Z,93175.28
2023-03-02T00:54:59.492Z,93177.69
2023-03-02T00:56:31.744Z,93174.75
2023-03-02T00:58:04.167Z,93170.72
2023-03-02T00:59:36.951Z,93171.50
2023-03-02T01:01:09.688Z,93167.22
2023-03-02T01:02:44.621Z,93162.13
2023-03-02T01:04:16.284Z,93158.13
2023-03-02T01:05:48.151Z,93153.59
2023-03-02T01:07:20.952Z,93155.16
2023-03-02T01:08:52.422Z,93155.69
2023-03-02T01:10:24.079Z,93160.75
2023-03-02T01:11:55.680Z,93155.13
2023-03-02T01:13:27.290Z,93154.06
2023-03-02T01:14:58.837Z,93151.41
2023-03-02T01:16:31.282Z,93147.94
2023-03-02T01:18:03.472Z,93145.25
2023-03-02T01:19:35.093Z,93143.13
2023-03-02T01:21:07.696Z,93135.38
2023-03-02T01:22:39.307Z,93142.09
2023-03-02T01:24:10.828Z,93139.44
2023-03-02T01:25:42.406Z,93139.44
2023-03-02T01:27:14.081Z,93140.22
2023-03-02T01:28:45.649Z,93143.66
2023-03-02T01:30:17.426Z,93142.59
2023-03-02T01:31:48.999Z,93139.66
2023-03-02T01:33:21.558Z,93140.19
2023-03-02T01:34:53.213Z,93135.84
2023-03-02T01:36:25.150Z,93144.13
2023-03-02T01:37:56.668Z,93140.13
2023-03-02T01:39:28.787Z,93144.66
2023-03-02T01:41:00.834Z,93144.41
2023-03-02T01:42:38.770Z,93145.22
2023-03-02T01:44:28.918Z,93138.31
2023-03-02T01:46:20.865Z,93143.16
2023-03-02T01:47:52.436Z,93145.06
2023-03-02T01:49:23.991Z,93151.75
2023-03-02T01:50:55.622Z,93149.34
2023-03-02T01:52:27.452Z,93152.31
2023-03-02T01:54:01.007Z,93144.31
2023-03-02T01:55:32.863Z,93146.16
2023-03-02T01:57:04.777Z,93150.44
2023-03-02T01:58:36.731Z,93146.97
2023-03-02T02:00:10.398Z,93146.16
2023-03-02T02:01:42.818Z,93142.69
2023-03-02T02:03:23.726Z,93146.44
2023-03-02T02:04:55.672Z,93139.78
2023-03-02T02:06:29.832Z,93140.03
2023-03-02T02:08:01.419Z,93137.38
2023-03-02T02:09:37.278Z,93141.63
2023-03-02T02:11:08.902Z,93141.91
2023-03-02T02:12:40.534Z,93147.03
2023-03-02T02:14:12.092Z,93139.03
2023-03-02T02:15:43.578Z,93136.63
2023-03-02T02:17:15.153Z,93137.41
2023-03-02T02:18:46.791Z,93135.81
2023-03-02T02:20:29.397Z,93142.22
2023-03-02T02:22:01.451Z,93137.94
2023-03-02T02:23:43.403Z,93141.69
2023-03-02T02:25:24.846Z,93142.44
2023-03-02T02:26:56.511Z,93138.44
2023-03-02T02:28:32.470Z,93140.03
2023-03-02T02:30:04.533Z,93131.75
2023-03-02T02:31:40.947Z,93134.44
2023-03-02T02:33:14.309Z,93124.03
2023-03-02T02:34:48.835Z,93136.03
2023-03-02T02:36:21.995Z,93130.94
2023-03-02T02:37:57.633Z,93125.88
2023-03-02T02:39:30.391Z,93122.41
2023-03-02T02:41:03.168Z,93112.00
2023-03-02T02:42:35.802Z,93109.59
2023-03-02T02:44:07.352Z,93108.00
2023-03-02T02:45:38.929Z,93115.50
2023-03-02T02:47:17.140Z,93106.97
2023-03-02T02:48:48.726Z,93108.06
2023-03-02T02:50:21.803Z,93106.19
2023-03-02T02:51:53.300Z,93102.72
2023-03-02T02:53:25.488Z,93100.03
2023-03-02T02:54:57.797Z,93095.25
2023-03-02T02:56:33.118Z,93100.84
2023-03-02T02:58:10.086Z,93100.53
2023-03-02T02:59:43.298Z,93106.41
2023-03-02T03:01:15.879Z,93110.63
2023-03-02T03:02:48.351Z,93106.34
2023-03-02T03:04:24.801Z,93102.34
2023-03-02T03:05:59.312Z,93098.34
2023-03-02T03:07:31.258Z,93096.75
2023-03-02T03:09:02.859Z,93097.31
2023-03-02T03:10:35.215Z,93105.59
2023-03-02T03:12:25.564Z,93101.06
2023-03-02T03:13:59.886Z,93104.00
2023-03-02T03:15:31.481Z,93108.53
2023-03-02T03:17:03.369Z,93107.47
2023-03-02T03:18:35.010Z,93105.59
2023-03-02T03:20:09.571Z,93108.53
2023-03-02T03:21:41.491Z,93105.88
2023-03-02T03:23:12.986Z,93111.75
2023-03-02T03:24:45.165Z,93110.69
2023-03-02T03:26:17.318Z,93116.06
2023-03-02T03:27:48.842Z,93116.59
2023-03-02T03:29:24.307Z,93115.00
2023-03-02T03:30:56.389Z,93112.88
2023-03-02T03:32:28.092Z,93117.41
2023-03-02T03:34:00.925Z,93117.66
2023-03-02T03:35:32.491Z,93109.66
2023-03-02T03:37:04.099Z,93116.06
2023-03-02T03:38:35.583Z,93121.69
2023-03-02T03:40:08.071Z,93114.75
2023-03-02T03:41:40.079Z,93116.59
2023-03-02T03:43:13.811Z,93113.44
2023-03-02T03:44:45.445Z,93119.53
2023-03-02T03:46:17.256Z,93116.59
2023-03-02T03:47:48.786Z,93120.88
2023-03-02T03:49:20.292Z,93115.50
2023-03-02T03:50:51.801Z,93123.50
2023-03-02T03:52:30.678Z,93120.81
2023-03-02T03:54:02.957Z,93120.81
2023-03-02T03:55:34.452Z,93117.34
2023-03-02T03:57:06.806Z,93127.22
2023-03-02T03:58:38.379Z,93118.44
2023-03-02T04:00:10.946Z,93119.22
2023-03-02T04:01:43.706Z,93117.34
2023-03-02T04:03:15.887Z,93117.66
2023-03-02T04:04:47.615Z,93111.22
2023-03-02T04:06:19.166Z,93113.09
2023-03-02T04:07:50.727Z,93111.00
2023-03-02T04:09:22.452Z,93113.94
2023-03-02T04:10:53.985Z,93110.72
2023-03-02T04:12:25.490Z,93108.06
2023-03-02T04:13:57.650Z,93113.94
2023-03-02T04:15:29.678Z,93104.84
2023-03-02T04:17:01.900Z,93109.66
2023-03-02T04:18:33.705Z,93109.34
2023-03-02T04:20:08.344Z,93109.09
2023-03-02T04:21:40.351Z,93113.63
2023-03-02T04:23:12.142Z,93120.00
2023-03-02T04:24:43.734Z,93113.06
2023-03-02T04:26:15.429Z,93121.63
2023-03-02T04:27:47.411Z,93114.13
2023-03-02T04:29:18.926Z,93114.69
2023-03-02T04:30:51.723Z,93116.81
2023-03-02T04:32:23.269Z,93114.13
2023-03-02T04:33:54.873Z,93119.69
2023-03-02T04:35:26.639Z,93122.63
2023-03-02T04:36:58.238Z,93111.69
2023-03-02T04:38:29.856Z,93119.16
2023-03-02T04:40:01.400Z,93116.22
2023-03-02T04:41:33.026Z,93113.88
2023-03-02T04:43:04.521Z,93112.03
2023-03-02T04:44:36.018Z,93116.59
2023-03-02T04:46:07.834Z,93115.28
2023-03-02T04:47:39.617Z,93113.66
2023-03-02T04:49:11.108Z,93114.47
2023-03-02T04:50:42.632Z,93119.28
2023-03-02T04:52:14.194Z,93112.34
2023-03-02T04:53:45.682Z,93122.22
2023-03-02T04:55:18.375Z,93123.00
2023-03-02T04:56:51.640Z,93122.22
2023-03-02T04:58:23.814Z,93119.28
2023-03-02T04:59:55.454Z,93119.53
2023-03-02T05:01:27.199Z,93118.16
2023-03-02T05:02:58.939Z,93117.06
2023-03-02T05:04:30.517Z,93106.94
2023-03-02T05:06:03.744Z,93108.78
2023-03-02T05:07:35.228Z,93114.94
2023-03-02T05:09:06.810Z,93114.13
2023-03-02T05:10:38.348Z,93101.06
2023-03-02T05:12:09.960Z,93113.34
2023-03-02T05:13:41.523Z,93113.88
2023-03-02T05:15:13.097Z,93113.81
2023-03-02T05:16:44.650Z,93108.47
2023-03-02T05:18:16.205Z,93109.25
2023-03-02T05:19:47.662Z,93107.88
2023-03-02T05:21:19.333Z,93113.22
2023-03-02T05:22:50.844Z,93110.28
2023-03-02T05:24:22.346Z,93114.81
2023-03-02T05:25:54.517Z,93113.22
2023-03-02T05:27:26.077Z,93124.97
2023-03-02T05:28:57.613Z,93122.56
2023-03-02T05:30:29.241Z,93114.81
2023-03-02T05:32:00.882Z,93123.13
2023-03-02T05:33:32.562Z,93119.38
2023-03-02T05:35:04.306Z,93116.44
2023-03-02T05:36:36.142Z,93108.69
2023-03-02T05:38:07.875Z,93113.22
2023-03-02T05:39:39.595Z,93115.66
2023-03-02T05:41:11.299Z,93120.22
2023-03-02T05:42:42.899Z,93123.97
2023-03-02T05:44:14.420Z,93127.97
2023-03-02T05:45:45.987Z,93129.56
2023-03-02T05:47:18.554Z,93132.44
2023-03-02T05:48:50.111Z,93133.78
2023-03-02T05:50:25.226Z,93134.56
2023-03-02T05:51:59.790Z,93128.69
2023-03-02T05:53:34.033Z,93131.34
2023-03-02T05:55:05.789Z,93139.59
2023-03-02T05:56:37.497Z,93137.72
2023-03-02T05:58:18.025Z,93144.66
2023-03-02T06:01:41.368Z,93140.91
2023-03-02T06:03:13.156Z,93135.78
2023-03-02T06:04:53.818Z,93147.28
2023-03-02T06:06:33.866Z,93148.91
2023-03-02T06:08:14.677Z,93146.78
2023-03-02T06:09:46.287Z,93146.00
2023-03-02T06:13:15.879Z,93144.41
2023-03-02T06:14:47.449Z,93145.75
2023-03-02T06:16:19.279Z,93150.28
2023-03-02T06:30:34.494Z,93155.41
2023-03-02T06:34:29.751Z,93148.47
2023-03-02T06:36:15.421Z,93154.03
2023-03-02T06:44:31.099Z,93160.22
2023-03-02T06:47:43.079Z,93154.06
2023-03-02T06:49:48.668Z,93159.63
2023-03-02T06:52:10.892Z,93160.91
2023-03-02T06:55:56.845Z,93160.56
2023-03-02T06:57:48.105Z,93166.16
2023-03-02T07:08:53.996Z,93167.84
2023-03-02T07:10:37.388Z,93172.69
2023-03-02T07:15:53.928Z,93161.22
2023-03-02T07:22:34.042Z,93162.66
2023-03-02T07:32:35.567Z,93155.31
2023-03-02T07:37:00.153Z,93161.16
2023-03-02T07:38:31.772Z,93161.66
2023-03-02T07:40:12.357Z,93159.00
2023-03-02T07:41:59.260Z,93165.13
2023-03-02T07:45:32.410Z,93159.50
2023-03-02T07:53:37.231Z,93176.59
2023-03-02T08:25:01.036Z,93146.34
2023-03-02T08:28:27.280Z,93143.53
2023-03-02T08:29:58.949Z,93137.06
2023-03-02T08:36:37.444Z,93137.22
2023-03-02T08:38:24.589Z,93129.97
2023-03-02T08:42:22.514Z,93133.91
2023-03-02T08:44:45.187Z,93127.06
2023-03-02T08:46:29.314Z,93124.03
2023-03-02T08:48:00.950Z,93121.28
2023-03-02T09:00:46.250Z,93136.56
2023-03-02T09:05:12.528Z,93136.56
2023-03-02T09:06:44.756Z,93137.38
2023-03-02T09:26:36.262Z,93153.34
2023-03-02T09:28:10.878Z,93166.19
2023-03-02T09:29:57.933Z,93163.00
2023-03-02T09:37:09.683Z,93158.81
2023-03-02T09:38:03.202Z,93163.81
2023-03-02T09:39:37.638Z,93158.59
2023-03-02T09:41:15.884Z,93159.19
2023-03-02T09:43:07.071Z,93154.63
2023-03-02T09:44:46.360Z,93161.06
2023-03-02T09:47:10.540Z,93155.41
2023-03-02T09:48:35.682Z,93154.63
2023-03-02T09:50:26.304Z,93153.91
2023-03-02T09:52:27.010Z,93146.78
2023-03-02T09:55:47.756Z,93147.56
2023-03-02T09:57:23.160Z,93139.63
2023-03-02T09:59:05.504Z,93146.91
2023-03-02T10:00:40.567Z,93149.88
2023-03-02T10:04:41.495Z,93139.75
2023-03-02T10:06:13.274Z,93141.97
2023-03-02T10:07:50.394Z,93143.13
2023-03-02T10:09:27.459Z,93126.31
2023-03-02T10:10:59.736Z,93136.75
2023-03-02T10:12:37.609Z,93131.66
2023-03-02T10:16:47.208Z,93136.81
2023-03-02T10:18:12.339Z,93126.31
2023-03-02T10:19:47.045Z,93118.50
2023-03-02T10:21:22.527Z,93128.38
2023-03-02T10:22:55.376Z,93126.50
2023-03-02T10:24:30.548Z,93123.44
2023-03-02T10:26:36.111Z,93128.66
2023-03-02T10:28:12.475Z,93128.00
2023-03-02T10:29:51.528Z,93118.47
2023-03-02T10:31:32.191Z,93116.63
2023-03-02T10:35:16.796Z,93116.34
2023-03-02T10:36:48.521Z,93110.84
2023-03-02T10:38:28.626Z,93115.56
2023-03-02T10:40:20.741Z,93115.00
2023-03-02T10:42:26.043Z,93108.78
2023-03-02T10:46:02.141Z,93114.78
2023-03-02T10:47:37.233Z,93110.63
2023-03-02T10:49:27.688Z,93109.69
2023-03-02T10:51:00.615Z,93109.25
2023-03-02T10:54:20.733Z,93113.31
2023-03-02T10:55:55.015Z,93108.75
2023-03-02T10:57:58.830Z,93106.84
2023-03-02T10:59:43.660Z,93109.75
2023-03-02T11:01:35.700Z,93101.94
2023-03-02T11:03:25.570Z,93099.75
2023-03-02T11:05:17.219Z,93098.38
2023-03-02T11:06:49.246Z,93095.31
2023-03-02T11:08:24.514Z,93094.47
2023-03-02T11:10:28.079Z,93087.44
2023-03-02T11:12:26.040Z,93093.50
2023-03-02T11:14:14.089Z,93092.84
2023-03-02T11:15:49.018Z,93098.22
2023-03-02T11:17:31.071Z,93096.91
2023-03-02T11:19:21.706Z,93091.75
2023-03-02T11:21:49.021Z,93097.91
2023-03-02T11:23:55.076Z,93084.78
2023-03-02T11:25:28.670Z,93085.59
2023-03-02T11:29:24.235Z,93074.47
2023-03-02T11:31:02.978Z,93075.47
2023-03-02T11:32:37.475Z,93078.22
2023-03-02T11:34:38.222Z,93075.16
2023-03-02T11:38:18.056Z,93075.41
2023-03-02T11:40:10.464Z,93064.41
2023-03-02T11:41:49.372Z,93057.00
2023-03-02T11:43:22.176Z,93062.34
2023-03-02T11:45:06.815Z,93055.28
2023-03-02T11:46:58.737Z,93065.22
2023-03-02T11:50:46.209Z,93057.28
2023-03-02T11:52:19.170Z,93054.50
2023-03-02T11:54:29.027Z,93055.25
2023-03-02T11:56:23.914Z,93060.72
2023-03-02T11:57:55.904Z,93057.97
2023-03-02T11:59:32.809Z,93058.47
2023-03-02T12:01:13.244Z,93059.25
2023-03-02T12:03:00.978Z,93063.72
2023-03-02T12:04:34.037Z,93068.00
2023-03-02T12:06:14.849Z,93060.53
2023-03-02T12:07:46.958Z,93063.34
2023-03-02T12:09:24.525Z,93062.81
2023-03-02T12:11:06.751Z,93052.97
2023-03-02T12:12:42.173Z,93053.38
2023-03-02T12:14:26.145Z,93054.00
2023-03-02T12:15:57.960Z,93050.91
2023-03-02T12:17:31.317Z,93048.44
2023-03-02T12:19:35.513Z,93045.16
2023-03-02T12:21:10.545Z,93053.28
2023-03-02T12:22:56.443Z,93047.22
2023-03-02T12:24:38.335Z,93049.91
2023-03-02T12:26:37.892Z,93050.31
2023-03-02T12:28:25.108Z,93048.06
2023-03-02T12:29:59.249Z,93040.81
2023-03-02T12:31:40.964Z,93043.50
2023-03-02T12:33:19.840Z,93045.75
2023-03-02T12:34:52.052Z,93039.09
2023-03-02T12:36:27.123Z,93035.81
2023-03-02T12:38:15.539Z,93036.69
2023-03-02T12:40:05.696Z,93033.59
2023-03-02T12:41:53.419Z,93035.50
2023-03-02T12:43:25.047Z,93040.97
2023-03-02T12:45:04.121Z,93033.13
2023-03-02T12:46:36.987Z,93024.94
2023-03-02T12:48:20.838Z,93023.16
2023-03-02T12:50:05.934Z,93014.03
2023-03-02T12:51:43.905Z,93022.88
2023-03-02T12:53:16.923Z,93018.63
2023-03-02T12:54:58.385Z,93023.09
2023-03-02T12:56:29.910Z,93017.94
2023-03-02T12:58:01.740Z,93018.53
2023-03-02T12:59:33.357Z,93018.53
2023-03-02T13:01:06.104Z,93018.03
2023-03-02T13:02:38.265Z,93014.47
2023-03-02T13:04:19.591Z,93019.41
2023-03-02T13:05:51.200Z,93010.25
2023-03-02T13:07:30.394Z,93012.66
2023-03-02T13:09:04.331Z,93017.31
2023-03-02T13:10:36.654Z,93015.91
2023-03-02T13:12:14.562Z,93007.13
2023-03-02T13:13:46.472Z,92998.25
2023-03-02T13:15:21.951Z,92999.81
2023-03-02T13:16:54.837Z,93003.22
2023-03-02T13:18:28.437Z,92996.84
2023-03-02T13:20:10.318Z,92995.53
2023-03-02T13:21:53.560Z,92996.06
2023-03-02T13:23:25.118Z,92995.13
2023-03-02T13:25:03.971Z,92995.94
2023-03-02T13:26:36.009Z,92989.91
2023-03-02T13:28:22.452Z,92995.56
2023-03-02T13:29:55.747Z,92996.78
2023-03-02T13:31:27.567Z,92993.75
2023-03-02T13:33:03.846Z,92990.97
2023-03-02T13:34:35.525Z,92989.78
2023-03-02T13:36:07.869Z,92981.25
2023-03-02T13:37:44.297Z,92988.44
2023-03-02T13:39:45.786Z,92985.69
2023-03-02T13:41:30.571Z,92979.25
2023-03-02T13:43:02.267Z,92979.78
2023-03-02T13:44:34.425Z,92983.47
2023-03-02T13:46:12.281Z,92977.75
2023-03-02T13:47:52.062Z,92974.34
2023-03-02T13:49:27.194Z,92973.06
2023-03-02T13:50:59.854Z,92977.97
2023-03-02T13:52:31.385Z,92978.84
2023-03-02T13:54:03.479Z,92976.09
2023-03-02T13:55:35.193Z,92966.81
2023-03-02T13:57:07.223Z,92962.00
2023-03-02T13:58:39.229Z,92971.34
2023-03-02T14:00:14.780Z,92959.69
2023-03-02T14:01:46.424Z,92975.97
2023-03-02T14:03:21.252Z,92975.47
2023-03-02T14:04:53.044Z,92973.13
2023-03-02T14:06:24.755Z,92967.53
2023-03-02T14:07:56.315Z,92974.56
2023-03-02T14:09:27.891Z,92974.03
2023-03-02T14:10:59.759Z,92973.25
2023-03-02T14:12:31.406Z,92971.47
2023-03-02T14:14:03.581Z,92969.66
2023-03-02T14:15:36.923Z,92973.72
2023-03-02T14:17:12.396Z,92972.94
2023-03-02T14:18:47.371Z,92971.66
2023-03-02T14:20:19.701Z,92975.59
2023-03-02T14:21:51.373Z,92971.78
2023-03-02T14:23:24.000Z,92969.28
2023-03-02T14:24:56.035Z,92965.19
2023-03-02T14:26:59.975Z,92971.41
2023-03-02T14:28:32.892Z,92966.59
2023-03-02T14:30:14.846Z,92966.75
2023-03-02T14:31:46.407Z,92957.28
2023-03-02T14:33:18.113Z,92963.25
2023-03-02T14:34:49.742Z,92960.06
2023-03-02T14:36:23.635Z,92954.81
2023-03-02T14:37:55.407Z,92965.38
2023-03-02T14:39:33.686Z,92961.66
2023-03-02T14:41:05.810Z,92959.84
2023-03-02T14:42:38.669Z,92959.69
2023-03-02T14:44:11.214Z,92952.31
2023-03-02T14:45:43.023Z,92949.41
2023-03-02T14:47:16.764Z,92945.22
2023-03-02T14:48:48.626Z,92951.94
2023-03-02T14:50:20.473Z,92952.31
2023-03-02T14:51:59.608Z,92947.28
2023-03-02T14:53:32.961Z,92949.53
2023-03-02T14:55:25.837Z,92959.66
2023-03-02T14:56:57.751Z,92952.28
2023-03-02T14:58:33.138Z,92953.66
2023-03-02T15:00:05.937Z,92945.09
2023-03-02T15:01:39.589Z,92953.16
2023-03-02T15:03:13.641Z,92956.94
2023-03-02T15:04:45.690Z,92942.47
2023-03-02T15:06:20.549Z,92958.31
2023-03-02T15:07:54.186Z,92961.03
2023-03-02T15:09:26.336Z,92958.94
2023-03-02T15:10:58.858Z,92968.31
2023-03-02T15:12:31.228Z,92965.34
2023-03-02T15:14:03.318Z,92961.59
2023-03-02T15:15:35.344Z,92962.09
2023-03-02T15:17:08.568Z,92971.44
2023-03-02T15:18:40.417Z,92975.47
2023-03-02T15:20:14.205Z,92974.91
2023-03-02T15:21:46.651Z,92964.22
2023-03-02T15:23:18.286Z,92980.75
2023-03-02T15:24:50.152Z,92975.69
2023-03-02T15:26:21.716Z,92977.28
2023-03-02T15:27:53.502Z,92985.59
2023-03-02T15:29:25.131Z,92983.19
2023-03-02T15:30:57.472Z,92987.75
2023-03-02T15:32:29.535Z,92986.38
2023-03-02T15:34:01.849Z,92989.31
2023-03-02T15:35:34.658Z,92984.50
2023-03-02T15:37:06.719Z,92990.69
2023-03-02T15:38:38.501Z,92990.13
2023-03-02T15:40:11.111Z,92997.34
2023-03-02T15:41:42.701Z,92997.09
2023-03-02T15:43:14.661Z,92998.97
2023-03-02T15:44:46.361Z,92998.44
2023-03-02T15:46:18.548Z,93002.19
2023-03-02T15:47:50.433Z,93002.19
2023-03-02T15:49:25.236Z,93002.66
2023-03-02T15:51:02.930Z,93009.50
2023-03-02T15:52:34.604Z,93005.75
2023-03-02T15:54:07.008Z,92998.00
2023-03-02T15:55:40.442Z,93007.09
2023-03-02T15:57:13.018Z,93001.53
2023-03-02T15:58:47.896Z,92999.41
2023-03-02T16:00:20.372Z,92998.59
2023-03-02T16:01:53.304Z,92999.94
2023-03-02T16:03:25.093Z,93003.47
2023-03-02T16:04:56.947Z,93003.22
2023-03-02T16:06:29.338Z,92996.56
2023-03-02T16:08:00.954Z,93001.63
2023-03-02T16:09:32.729Z,93005.34
2023-03-02T16:11:05.667Z,93004.53
2023-03-02T16:12:37.621Z,93006.97
2023-03-02T16:14:15.916Z,93000.84
2023-03-02T16:15:52.411Z,93006.41
2023-03-02T16:17:24.380Z,93000.22
2023-03-02T16:18:57.451Z,93005.22
2023-03-02T16:20:29.369Z,93004.38
2023-03-02T16:22:01.206Z,93006.25
2023-03-02T16:23:33.030Z,92997.66
2023-03-02T16:25:04.893Z,93007.53
2023-03-02T16:26:37.589Z,93005.59
2023-03-02T16:28:10.255Z,93002.38
2023-03-02T16:29:43.702Z,93003.16
2023-03-02T16:31:17.035Z,93005.03
2023-03-02T16:32:49.245Z,93007.72
2023-03-02T16:34:20.943Z,93013.34
2023-03-02T16:35:52.708Z,93013.69
2023-03-02T16:37:24.663Z,93015.84
2023-03-02T16:38:56.516Z,93017.25
2023-03-02T16:40:31.034Z,93013.81
2023-03-02T16:42:02.740Z,93022.38
2023-03-02T16:43:34.381Z,93025.06
2023-03-02T16:45:06.505Z,93021.38
2023-03-02T16:46:39.504Z,93020.31
2023-03-02T16:48:11.421Z,93017.00
2023-03-02T16:49:43.139Z,93025.25
2023-03-02T16:51:15.776Z,93025.19
2023-03-02T16:52:48.376Z,93018.53
2023-03-02T16:54:21.334Z,93011.75
2023-03-02T16:55:53.837Z,93013.75
2023-03-02T16:57:29.988Z,93015.19
2023-03-02T16:59:02.038Z,93010.41
2023-03-02T17:00:34.472Z,93017.94
2023-03-02T17:02:06.400Z,93017.75
2023-03-02T17:03:38.142Z,93024.75
2023-03-02T17:05:10.276Z,93021.88
2023-03-02T17:06:59.534Z,93017.91
2023-03-02T17:08:33.238Z,93027.84
2023-03-02T17:10:05.802Z,93016.09
2023-03-02T17:11:37.796Z,93015.09
2023-03-02T17:13:12.960Z,93012.19
2023-03-02T17:14:45.072Z,93015.19
2023-03-02T17:16:17.015Z,93015.44
2023-03-02T17:17:49.060Z,93023.19
2023-03-02T17:19:21.121Z,93028.53
2023-03-02T17:20:54.293Z,93011.19
2023-03-02T17:22:26.397Z,93012.78
2023-03-02T17:23:58.244Z,93013.84
2023-03-02T17:25:30.331Z,93009.38
2023-03-02T17:27:02.399Z,93013.66
2023-03-02T17:28:34.223Z,93016.66
2023-03-02T17:30:06.512Z,93018.78
2023-03-02T17:31:38.761Z,93018.78
2023-03-02T17:33:10.983Z,93005.19
2023-03-02T17:34:43.647Z,93011.34
2023-03-02T17:36:15.949Z,93013.50
2023-03-02T17:37:47.621Z,93015.31
2023-03-02T17:39:19.684Z,93009.44
2023-03-02T17:40:51.860Z,93013.72
2023-03-02T17:42:23.920Z,93016.66
2023-03-02T17:43:55.492Z,93015.84
2023-03-02T17:45:27.422Z,93021.66
2023-03-02T17:46:59.323Z,93017.66
2023-03-02T17:48:30.885Z,93018.41
2023-03-02T17:50:03.483Z,93020.53
2023-03-02T17:51:35.415Z,93020.19
2023-03-02T17:53:07.186Z,93028.72
2023-03-02T17:54:38.934Z,93028.13
2023-03-02T17:56:11.146Z,93022.53
2023-03-02T17:57:43.423Z,93027.84
2023-03-02T17:59:15.429Z,93025.41
2023-03-02T18:00:47.519Z,93018.97
2023-03-02T18:02:19.432Z,93013.09
2023-03-02T18:03:51.365Z,93028.28
2023-03-02T18:05:23.301Z,93021.00
2023-03-02T18:06:54.967Z,93014.34
2023-03-02T18:08:27.148Z,93022.34
2023-03-02T18:09:58.882Z,93023.88
2023-03-02T18:11:32.006Z,93021.72
2023-03-02T18:13:03.817Z,93023.94
2023-03-02T18:14:35.812Z,93023.41
2023-03-02T18:16:07.557Z,93021.25
2023-03-02T18:17:39.385Z,93022.31
2023-03-02T18:19:11.337Z,93019.63
2023-03-02T18:20:42.991Z,93021.00
2023-03-02T18:22:15.084Z,93019.13
2023-03-02T18:23:47.918Z,93022.66
2023-03-02T18:25:20.418Z,93024.00
2023-03-02T18:26:52.035Z,93021.09
2023-03-02T18:28:23.578Z,93018.19
2023-03-02T18:29:55.635Z,93024.38
2023-03-02T18:31:28.525Z,93028.38
2023-03-02T18:33:00.906Z,93025.19
2023-03-02T18:34:33.372Z,93025.19
2023-03-02T18:36:05.642Z,93028.66
2023-03-02T18:37:37.316Z,93032.66
2023-03-02T18:39:09.036Z,93028.44
2023-03-02T18:40:40.654Z,93026.25
2023-03-02T18:42:12.882Z,93035.34
2023-03-02T18:43:45.016Z,93033.53
2023-03-02T18:45:27.179Z,93033.25
2023-03-02T18:46:59.159Z,93038.31
2023-03-02T18:48:32.214Z,93035.88
2023-03-02T18:50:04.548Z,93038.50
2023-03-02T18:51:36.858Z,93036.38
2023-03-02T18:53:11.218Z,93038.19
2023-03-02T18:54:44.857Z,93037.97
2023-03-02T18:56:16.696Z,93040.38
2023-03-02T18:57:48.760Z,93037.72
2023-03-02T18:59:20.457Z,93047.06
2023-03-02T19:00:52.882Z,93050.81
2023-03-02T19:02:24.684Z,93051.66
2023-03-02T19:03:57.800Z,93051.13
2023-03-02T19:05:29.862Z,93058.88
2023-03-02T19:07:03.192Z,93052.47
2023-03-02T19:08:35.736Z,93049.28
2023-03-02T19:10:07.626Z,93055.97
2023-03-02T19:11:39.609Z,93064.81
2023-03-02T19:13:12.090Z,93064.03
2023-03-02T19:14:44.043Z,93062.16
2023-03-02T19:16:18.117Z,93054.44
2023-03-02T19:17:52.161Z,93062.97
2023-03-02T19:19:24.022Z,93060.03
2023-03-02T19:20:57.856Z,93053.63
2023-03-02T19:22:29.578Z,93056.81
2023-03-02T19:24:02.232Z,93063.22
2023-03-02T19:25:34.354Z,93060.34
2023-03-02T19:27:05.935Z,93058.75
2023-03-02T19:28:38.523Z,93058.28
2023-03-02T19:30:11.762Z,93063.06
2023-03-02T19:31:43.673Z,93057.22
2023-03-02T19:33:15.570Z,93061.47
2023-03-02T19:34:47.576Z,93064.44
2023-03-02T19:36:19.767Z,93061.53
2023-03-02T19:37:51.334Z,93062.88
2023-03-02T19:39:22.891Z,93064.50
2023-03-02T19:40:55.716Z,93066.06
2023-03-02T19:42:27.288Z,93069.00
2023-03-02T19:43:59.411Z,93070.28
2023-03-02T19:45:32.562Z,93071.88
2023-03-02T19:47:04.902Z,93071.34
2023-03-02T19:48:36.828Z,93078.81
2023-03-02T19:50:09.500Z,93074.53
2023-03-02T19:51:41.208Z,93078.56
2023-03-02T19:53:13.049Z,93074.00
2023-03-02T19:54:44.816Z,93072.69
2023-03-02T19:56:16.734Z,93075.13
2023-03-02T19:57:51.656Z,93074.88
2023-03-02T19:59:24.027Z,93072.47
2023-03-02T20:00:55.830Z,93066.88
2023-03-02T20:02:27.588Z,93070.06
2023-03-02T20:04:00.297Z,93077.00
2023-03-02T20:05:32.007Z,93083.13
2023-03-02T20:07:03.868Z,93075.13
2023-03-02T20:08:35.594Z,93078.03
2023-03-02T20:10:10.146Z,93074.81
2023-03-02T20:11:42.359Z,93075.88
2023-03-02T20:13:14.099Z,93072.97
2023-03-02T20:14:49.391Z,93070.31
2023-03-02T20:16:23.064Z,93066.34
2023-03-02T20:17:55.254Z,93077.53
2023-03-02T20:19:27.228Z,93078.09
2023-03-02T20:20:58.853Z,93072.50
2023-03-02T20:22:30.666Z,93062.38
2023-03-02T20:24:02.990Z,93064.50
2023-03-02T20:25:34.925Z,93067.19
2023-03-02T20:27:07.028Z,93070.94
2023-03-02T20:28:38.696Z,93073.34
2023-03-02T20:30:11.476Z,93065.09
2023-03-02T20:31:43.417Z,93069.34
2023-03-02T20:33:15.601Z,93060.59
2023-03-02T20:34:47.689Z,93056.06
2023-03-02T20:36:21.522Z,93051.03
2023-03-02T20:37:53.752Z,93057.97
2023-03-02T20:39:26.586Z,93049.44
2023-03-02T20:40:58.870Z,93048.38
2023-03-02T20:42:34.227Z,93042.25
2023-03-02T20:44:06.009Z,93038.25
2023-03-02T20:45:38.135Z,93041.47
2023-03-02T20:47:10.231Z,93050.25
2023-03-02T20:48:42.503Z,93046.81
2023-03-02T20:50:15.292Z,93051.63
2023-03-02T20:51:51.386Z,93039.34
2023-03-02T20:53:23.341Z,93050.28
2023-03-02T20:54:54.998Z,93050.84
2023-03-02T20:56:27.424Z,93047.88
2023-03-02T20:58:00.280Z,93050.28
2023-03-02T20:59:31.954Z,93045.22
2023-03-02T21:01:03.706Z,93044.16
2023-03-02T21:02:35.663Z,93050.81
2023-03-02T21:04:07.481Z,93042.81
2023-03-02T21:05:40.985Z,93043.63
2023-03-02T21:07:12.727Z,93035.63
2023-03-02T21:08:44.808Z,93037.50
2023-03-02T21:10:18.264Z,93039.34
2023-03-02T21:11:50.066Z,93037.19
2023-03-02T21:13:22.711Z,93035.59
2023-03-02T21:14:54.692Z,93026.28
2023-03-02T21:16:28.072Z,93029.16